Time;durP1;ratioP1;P1;durP2;ratioP2;P2;SDS_P1;SDS_P2;PMS_P1;PMS_P2;Temp;Humidity;BMP_temperature;BMP_pressure;BME280_temperature;BME280_humidity;BME280_pressure;Samples;Min_cycle;Max_cycle;Signal;HPM_P1;HPM_P2
2021/04/19 00:01:47;;;;;;;9.40;6.37;;;;;;;8.59;87.33;101371.61;115546;1212;62479;-75
2021/04/19 00:04:14;;;;;;;8.23;5.60;;;;;;;8.57;86.44;101354.06;115810;1212;62144;-75
2021/04/19 00:06:41;;;;;;;9.53;5.63;;;;;;;8.55;87.47;101355.19;115564;1212;62162;-75
2021/04/19 00:09:08;;;;;;;10.93;7.07;;;;;;;8.52;86.74;101361.61;115601;1212;62509;-75
2021/04/19 00:11:35;;;;;;;7.90;5.30;;;;;;;8.50;87.31;101363.56;115803;1212;62336;-75
2021/04/19 00:14:03;;;;;;;11.65;7.20;;;;;;;8.48;87.37;101365.52;115581;1212;62434;-75
2021/04/19 00:16:30;;;;;;;14.37;7.17;;;;;;;8.47;87.78;101363.01;115622;1211;62949;-75
2021/04/19 00:18:57;;;;;;;11.70;6.30;;;;;;;8.48;87.16;101360.23;115598;1211;62558;-75
2021/04/19 00:21:24;;;;;;;10.87;6.80;;;;;;;8.52;88.14;101360.75;115615;1211;62243;-75
2021/04/19 00:23:51;;;;;;;9.95;6.05;;;;;;;8.57;87.72;101353.23;115596;1212;62475;-75
2021/04/19 00:26:17;;;;;;;9.05;5.65;;;;;;;8.62;87.73;101353.62;115626;1212;62307;-75
2021/04/19 00:28:44;;;;;;;8.03;5.87;;;;;;;8.67;88.15;101364.61;115809;1211;62336;-75
2021/04/19 00:31:10;;;;;;;9.57;5.93;;;;;;;8.69;88.07;101356.50;115827;1212;63498;-75
2021/04/19 00:33:37;;;;;;;8.75;5.60;;;;;;;8.72;87.35;101361.52;115825;1212;62195;-75
2021/04/19 00:36:04;;;;;;;10.77;6.23;;;;;;;8.71;87.39;101359.84;115849;1212;62232;-75
2021/04/19 00:38:31;;;;;;;12.30;6.40;;;;;;;8.72;86.89;101358.88;115762;1212;62405;-75
2021/04/19 00:41:01;;;;;;;10.50;6.50;;;;;;;8.70;86.35;101364.30;115609;1212;62298;-75
2021/04/19 00:43:28;;;;;;;9.20;5.90;;;;;;;8.69;87.49;101356.50;115817;1212;62376;-75
2021/04/19 00:46:02;;;;;;;9.37;5.17;;;;;;;8.73;87.03;101361.38;115765;1212;62428;-75
2021/04/19 00:48:34;;;;;;;8.03;5.08;;;;;;;8.74;87.13;101354.27;115842;1212;63123;-75
2021/04/19 00:51:05;;;;;;;6.40;4.30;;;;;;;8.67;87.73;101354.03;115801;1212;62249;-75
2021/04/19 00:53:32;;;;;;;7.80;4.90;;;;;;;8.60;87.02;101342.35;115585;1212;62172;-75
2021/04/19 00:55:58;;;;;;;7.45;5.30;;;;;;;8.54;87.15;101351.72;115834;1212;62166;-75
2021/04/19 00:58:29;;;;;;;9.40;6.30;;;;;;;8.54;87.49;101353.50;115813;1212;62627;-75
2021/04/19 01:00:55;;;;;;;11.95;7.15;;;;;;;8.57;87.41;101355.88;115779;1212;62342;-74
2021/04/19 01:03:23;;;;;;;11.27;6.33;;;;;;;8.57;87.28;101354.06;115806;1212;62161;-75
2021/04/19 01:05:51;;;;;;;10.23;6.20;;;;;;;8.57;87.34;101353.23;115629;1211;63982;-75
2021/04/19 01:08:17;;;;;;;11.90;6.00;;;;;;;8.57;87.55;101356.70;115767;1211;62260;-76
2021/04/19 01:10:44;;;;;;;9.80;5.60;;;;;;;8.57;87.33;101358.52;115826;1212;62465;-75
2021/04/19 01:13:11;;;;;;;10.67;7.13;;;;;;;8.55;87.44;101356.02;115591;1212;62837;-76
2021/04/19 01:15:38;;;;;;;10.47;6.93;;;;;;;8.56;87.71;101357.70;115732;1211;62152;-75
2021/04/19 01:18:05;;;;;;;11.00;7.05;;;;;;;8.54;87.70;101364.94;115568;1212;62349;-75
2021/04/19 01:20:32;;;;;;;11.27;6.93;;;;;;;8.54;88.15;101370.23;115787;1212;62212;-75
2021/04/19 01:22:59;;;;;;;9.70;6.53;;;;;;;8.53;88.02;101363.26;115807;1212;62362;-75
2021/04/19 01:25:28;;;;;;;12.05;7.75;;;;;;;8.54;88.06;101362.30;115823;1212;62969;-75
2021/04/19 01:27:56;;;;;;;11.25;7.60;;;;;;;8.55;87.95;101355.19;115797;1211;62277;-74
2021/04/19 01:30:25;;;;;;;13.00;7.23;;;;;;;8.54;88.26;101356.15;115601;1212;62408;-74
2021/04/19 01:32:52;;;;;;;9.83;6.93;;;;;;;8.55;88.26;101356.02;115587;1212;62454;-75
2021/04/19 01:35:19;;;;;;;11.30;7.67;;;;;;;8.57;87.83;101353.23;115774;1212;62576;-75
2021/04/19 01:37:46;;;;;;;14.40;8.33;;;;;;;8.61;88.22;101349.32;115619;1212;63231;-75
2021/04/19 01:40:17;;;;;;;15.57;10.17;;;;;;;8.61;88.09;101354.61;115530;1211;62166;-75
2021/04/19 01:42:45;;;;;;;13.03;8.30;;;;;;;8.60;87.92;101362.68;115831;1211;62231;-76
2021/04/19 01:45:13;;;;;;;13.87;9.50;;;;;;;8.59;88.42;101361.03;115588;1212;62342;-75
2021/04/19 01:47:40;;;;;;;13.30;7.00;;;;;;;8.56;87.86;101352.41;115610;1212;62159;-75
2021/04/19 01:50:13;;;;;;;15.93;10.20;;;;;;;8.55;88.28;101365.77;115577;1212;62556;-75
2021/04/19 01:52:39;;;;;;;14.07;8.23;;;;;;;8.56;88.24;101360.34;115554;1212;62426;-75
2021/04/19 01:55:09;;;;;;;17.20;9.27;;;;;;;8.55;88.56;101358.66;115604;1212;62355;-75
2021/04/19 01:57:38;;;;;;;17.33;9.87;;;;;;;8.57;88.64;101367.28;115591;1211;62414;-75
2021/04/19 02:00:09;;;;;;;12.80;7.60;;;;;;;8.60;89.19;101357.39;115582;1212;62215;-75
2021/04/19 02:03:06;;;;;;;15.17;10.37;;;;;;;8.61;89.16;101364.33;115818;1212;62158;-75
2021/04/19 02:05:35;;;;;;;16.50;9.67;;;;;;;8.62;89.55;101366.02;115741;1212;62577;-75
2021/04/19 02:08:26;;;;;;;21.00;12.07;;;;;;;8.61;89.11;101367.83;115766;1212;62379;-75
2021/04/19 02:11:02;;;;;;;14.05;8.15;;;;;;;8.60;89.02;101373.26;115752;1212;62506;-75
2021/04/19 02:13:43;;;;;;;14.20;8.20;;;;;;;8.59;89.16;101374.25;115898;1212;61929;-74
2021/04/19 02:16:23;;;;;;;16.50;9.70;;;;;;;8.57;89.05;101367.28;115850;1211;62563;-74
2021/04/19 02:19:04;;;;;;;21.65;12.35;;;;;;;8.58;88.53;101368.11;115889;1211;62263;-75
2021/04/19 02:21:45;;;;;;;21.40;12.70;;;;;;;8.56;89.16;101370.92;115651;1212;62296;-74
2021/04/19 02:24:21;;;;;;;19.90;11.70;;;;;;;8.56;88.85;101373.56;115686;1211;62802;-75
2021/04/19 02:27:03;;;;;;;22.10;12.40;;;;;;;8.55;88.79;101366.59;115795;1211;62482;-74
2021/04/19 02:29:37;;;;;;;20.47;10.27;;;;;;;8.51;89.08;101367.86;115622;1212;62392;-75
2021/04/19 02:32:15;;;;;;;18.67;10.73;;;;;;;8.48;88.79;101365.52;115836;1212;62261;-74
2021/04/19 02:34:44;;;;;;;23.10;11.95;;;;;;;8.43;88.52;101365.10;115873;1212;62135;-75
2021/04/19 02:37:11;;;;;;;23.50;11.83;;;;;;;8.39;88.31;101371.62;115595;1212;62735;-74
2021/04/19 02:39:41;;;;;;;19.80;11.77;;;;;;;8.36;88.43;101367.45;115790;1212;63504;-75
2021/04/19 02:42:09;;;;;;;22.90;12.87;;;;;;;8.35;88.32;101364.95;115817;1211;62198;-76
2021/04/19 02:44:37;;;;;;;19.93;12.37;;;;;;;8.34;88.67;101369.41;115615;1210;62273;-76
2021/04/19 02:47:05;;;;;;;18.10;10.67;;;;;;;8.35;88.29;101359.66;115598;1212;62586;-76
2021/04/19 02:49:34;;;;;;;19.00;11.90;;;;;;;8.33;88.18;101362.47;115832;1211;62358;-75
2021/04/19 02:52:04;;;;;;;16.70;10.57;;;;;;;8.32;88.19;101365.25;115602;1211;62275;-75
2021/04/19 02:54:33;;;;;;;19.20;11.90;;;;;;;8.30;88.55;101357.45;115599;1212;62968;-75
2021/04/19 02:57:00;;;;;;;16.40;9.55;;;;;;;8.25;87.70;101358.88;115607;1211;62233;-74
2021/04/19 02:59:30;;;;;;;21.50;13.03;;;;;;;8.21;87.62;101360.14;115786;1211;62607;-75
2021/04/19 03:02:06;;;;;;;18.97;12.00;;;;;;;8.15;87.22;101357.08;115582;1212;62086;-75
2021/04/19 03:04:37;;;;;;;19.87;11.63;;;;;;;8.09;87.57;101355.00;115838;1211;62370;-75
2021/04/19 03:07:08;;;;;;;24.10;13.00;;;;;;;8.04;87.62;101357.25;115594;1212;64228;-76
2021/04/19 03:09:43;;;;;;;20.10;11.85;;;;;;;8.02;87.93;101359.20;115569;1212;62256;-76
2021/04/19 03:12:12;;;;;;;16.60;9.35;;;;;;;7.95;87.74;101366.86;115577;1212;62429;-75
2021/04/19 03:14:46;;;;;;;15.90;9.60;;;;;;;7.89;87.93;101367.42;115593;1211;62366;-76
2021/04/19 03:17:15;;;;;;;19.20;10.80;;;;;;;7.82;88.03;101373.40;115541;1212;64225;-76
2021/04/19 03:19:48;;;;;;;14.90;9.85;;;;;;;7.75;88.15;101373.95;115744;1212;63165;-76
2021/04/19 03:22:16;;;;;;;21.70;12.17;;;;;;;7.71;88.31;101371.73;115720;1211;62272;-76
2021/04/19 03:24:44;;;;;;;22.90;12.35;;;;;;;7.65;88.40;101373.15;115820;1212;62028;-76
2021/04/19 03:27:11;;;;;;;18.35;11.10;;;;;;;7.61;88.55;101377.03;115810;1211;62614;-76
2021/04/19 03:29:41;;;;;;;15.75;9.15;;;;;;;7.58;88.24;101377.30;115810;1212;62324;-76
2021/04/19 03:32:11;;;;;;;18.95;11.50;;;;;;;7.58;88.79;101377.30;115822;1212;62225;-76
2021/04/19 03:34:41;;;;;;;17.50;10.60;;;;;;;7.58;88.96;101382.58;115628;1211;62266;-76
2021/04/19 03:37:18;;;;;;;17.60;10.40;;;;;;;7.57;88.59;101373.00;115642;1212;62818;-75
2021/04/19 03:39:56;;;;;;;16.40;10.30;;;;;;;7.57;88.94;101365.08;115570;1212;62311;-76
2021/04/19 03:42:25;;;;;;;14.60;8.70;;;;;;;7.58;88.79;101372.02;115832;1212;61800;-75
2021/04/19 03:44:54;;;;;;;19.63;10.20;;;;;;;7.59;89.09;101376.34;115836;1212;62787;-75
2021/04/19 03:47:22;;;;;;;22.35;12.30;;;;;;;7.63;89.13;101374.23;115558;1212;62674;-76
2021/04/19 03:49:54;;;;;;;22.60;11.60;;;;;;;7.65;88.74;101373.15;115578;1211;62437;-75
2021/04/19 03:52:24;;;;;;;18.30;10.40;;;;;;;7.69;88.82;101363.12;115863;1212;62266;-75
2021/04/19 03:54:53;;;;;;;19.27;11.53;;;;;;;7.71;88.81;101362.03;115602;1212;62393;-76
2021/04/19 03:57:22;;;;;;;16.43;9.83;;;;;;;7.74;88.54;101364.38;115614;1211;62347;-76
2021/04/19 04:00:04;;;;;;;17.37;9.43;;;;;;;7.76;88.82;101365.07;115675;1212;62240;-74
2021/04/19 04:02:32;;;;;;;16.87;10.13;;;;;;;7.79;88.90;101363.95;115782;1211;62301;-75
2021/04/19 04:05:00;;;;;;;14.25;9.50;;;;;;;7.84;88.50;101363.52;115815;1212;62260;-75
2021/04/19 04:07:28;;;;;;;16.97;10.33;;;;;;;7.88;88.35;101367.55;115561;1211;62319;-75
2021/04/19 04:09:55;;;;;;;15.95;8.80;;;;;;;7.89;88.37;101364.78;115616;1212;62232;-75
2021/04/19 04:12:23;;;;;;;15.93;9.53;;;;;;;7.89;88.16;101366.59;115569;1212;63502;-75
2021/04/19 04:14:54;;;;;;;13.53;8.53;;;;;;;7.91;88.45;101375.22;115571;1212;62386;-75
2021/04/19 04:17:22;;;;;;;14.93;9.63;;;;;;;7.88;87.96;101373.66;115853;1212;62111;-76
2021/04/19 04:19:49;;;;;;;16.45;9.30;;;;;;;7.89;87.87;101377.16;115819;1212;62153;-75
2021/04/19 04:22:17;;;;;;;16.30;9.03;;;;;;;7.88;87.71;101378.13;115613;1212;62872;-75
2021/04/19 04:24:45;;;;;;;19.60;9.90;;;;;;;7.87;87.78;101387.03;115688;1212;62413;-75
2021/04/19 04:27:15;;;;;;;14.65;8.60;;;;;;;7.88;88.25;101383.41;115580;1212;62250;-74
2021/04/19 04:29:42;;;;;;;15.40;8.50;;;;;;;7.87;88.10;101387.86;115597;1212;62274;-75
2021/04/19 04:32:09;;;;;;;16.80;9.97;;;;;;;7.88;88.41;101383.41;115604;1212;62240;-75
2021/04/19 04:34:38;;;;;;;11.30;6.95;;;;;;;7.88;88.24;101383.41;115629;1212;62798;-75
2021/04/19 04:37:06;;;;;;;17.70;8.07;;;;;;;7.85;88.00;101384.52;115579;1212;62257;-75
2021/04/19 04:39:34;;;;;;;15.90;9.50;;;;;;;7.84;88.03;101389.94;115798;1212;62209;-75
2021/04/19 04:42:03;;;;;;;13.80;8.63;;;;;;;7.84;88.15;101384.66;115584;1212;62418;-75
2021/04/19 04:44:37;;;;;;;15.40;9.90;;;;;;;7.84;87.67;101389.94;115608;1212;61807;-75
2021/04/19 04:47:26;;;;;;;14.13;8.47;;;;;;;7.85;87.85;101395.09;115553;1212;62420;-75
2021/04/19 04:50:00;;;;;;;16.00;8.60;;;;;;;7.84;87.75;101395.22;115796;1212;62560;-75
2021/04/19 04:52:30;;;;;;;15.90;10.00;;;;;;;7.83;87.92;101397.04;115693;1212;64378;-75
2021/04/19 04:54:58;;;;;;;16.50;10.50;;;;;;;7.86;87.55;101395.92;115795;1212;62137;-76
2021/04/19 04:57:28;;;;;;;16.00;9.70;;;;;;;7.86;87.74;101395.92;115606;1212;62875;-75
2021/04/19 04:59:56;;;;;;;15.50;9.95;;;;;;;7.87;87.41;101402.88;115805;1212;62273;-75
2021/04/19 05:02:24;;;;;;;19.03;10.83;;;;;;;7.85;87.87;101399.55;115622;1212;62712;-76
2021/04/19 05:04:53;;;;;;;15.23;9.13;;;;;;;7.85;87.30;101405.66;115915;1212;62248;-75
2021/04/19 05:07:20;;;;;;;15.55;8.90;;;;;;;7.85;87.63;101404.83;115633;1212;63139;-76
2021/04/19 05:09:48;;;;;;;19.20;9.50;;;;;;;7.86;87.43;101411.77;115588;1212;62200;-75
2021/04/19 05:12:16;;;;;;;15.40;10.43;;;;;;;7.88;87.28;101412.46;115727;1212;62696;-76
2021/04/19 05:14:57;;;;;;;15.53;8.77;;;;;;;7.89;87.70;101406.22;115936;1212;62104;-76
2021/04/19 05:17:23;;;;;;;14.70;9.70;;;;;;;7.92;87.37;101409.40;115680;1212;62212;-72
2021/04/19 05:19:51;;;;;;;15.40;8.05;;;;;;;7.97;87.60;101403.72;115828;1212;62924;-72
2021/04/19 05:22:19;;;;;;;16.60;9.45;;;;;;;8.02;87.33;101405.94;115810;1212;62342;-73
2021/04/19 05:24:47;;;;;;;10.93;6.50;;;;;;;8.05;86.78;101401.18;115605;1212;62950;-72
2021/04/19 05:27:15;;;;;;;11.83;7.53;;;;;;;8.03;86.34;101408.41;115772;1212;62365;-72
2021/04/19 05:29:42;;;;;;;18.87;9.30;;;;;;;8.03;86.64;101410.23;115817;1211;62352;-73
2021/04/19 05:32:10;;;;;;;13.27;7.30;;;;;;;8.04;86.74;101417.20;115403;1212;62285;-73
2021/04/19 05:34:37;;;;;;;18.35;10.30;;;;;;;8.01;86.76;101415.67;115471;1211;63393;-73
2021/04/19 05:37:06;;;;;;;12.70;8.00;;;;;;;7.97;86.59;101419.57;115079;1212;64419;-74
2021/04/19 05:39:34;;;;;;;13.60;7.37;;;;;;;7.92;86.51;101421.78;115829;1212;62382;-72
2021/04/19 05:42:02;;;;;;;14.70;8.05;;;;;;;7.91;87.00;101420.13;115787;1212;62440;-73
2021/04/19 05:44:32;;;;;;;15.10;8.40;;;;;;;7.91;86.80;101414.84;115719;1212;62739;-72
2021/04/19 05:47:02;;;;;;;15.27;8.23;;;;;;;7.94;86.95;101422.48;115583;1212;62549;-72
2021/04/19 05:49:28;;;;;;;15.03;8.30;;;;;;;8.00;86.64;101429.84;115616;1212;62152;-73
2021/04/19 05:51:57;;;;;;;15.85;9.15;;;;;;;8.08;86.93;101431.80;115582;1212;62396;-74
2021/04/19 05:54:25;;;;;;;13.47;7.93;;;;;;;8.15;86.22;101433.72;115607;1212;62331;-74
2021/04/19 05:57:12;;;;;;;15.50;8.57;;;;;;;8.25;86.55;101431.08;115574;1211;62351;-74
2021/04/19 05:59:48;;;;;;;15.60;9.20;;;;;;;8.35;86.45;101429.25;115841;1211;62369;-73
2021/04/19 06:02:24;;;;;;;13.80;8.20;;;;;;;8.41;85.70;101430.51;115585;1211;62646;-74
2021/04/19 06:04:54;;;;;;;15.13;8.47;;;;;;;8.49;85.34;101427.98;115830;1211;62909;-73
2021/04/19 06:07:34;;;;;;;12.53;8.03;;;;;;;8.63;85.63;101433.78;115749;1212;62134;-73
2021/04/19 06:10:07;;;;;;;15.45;9.00;;;;;;;8.80;85.67;101435.70;115614;1211;62156;-74
2021/04/19 06:12:37;;;;;;;15.50;8.70;;;;;;;8.97;84.59;101442.05;115588;1212;62616;-73
2021/04/19 06:15:11;;;;;;;12.35;7.15;;;;;;;9.13;84.32;101433.45;115734;1212;62983;-73
2021/04/19 06:17:42;;;;;;;12.35;7.25;;;;;;;9.29;84.46;101438.95;115605;1212;62450;-74
2021/04/19 06:20:12;;;;;;;13.93;8.00;;;;;;;9.45;82.77;101432.16;115720;1212;62365;-73
2021/04/19 06:22:38;;;;;;;12.85;7.75;;;;;;;9.53;81.38;101433.07;115814;1212;62263;-74
2021/04/19 06:25:05;;;;;;;12.87;7.70;;;;;;;9.62;80.81;101439.28;115841;1212;62339;-74
2021/04/19 06:27:32;;;;;;;10.80;7.03;;;;;;;9.68;79.03;101436.03;115583;1212;62764;-74
2021/04/19 06:30:12;;;;;;;6.70;3.55;;;;;;;9.70;78.70;101438.55;115822;1212;62358;-73
2021/04/19 06:32:39;;;;;;;9.83;5.77;;;;;;;9.75;79.35;101445.06;115633;1212;62233;-73
2021/04/19 06:35:07;;;;;;;17.80;7.20;;;;;;;9.77;77.94;101445.72;115611;1212;62325;-74
2021/04/19 06:37:34;;;;;;;9.80;6.10;;;;;;;9.77;77.37;101451.02;115768;1211;62933;-74
2021/04/19 06:40:02;;;;;;;14.00;5.95;;;;;;;9.80;78.36;101453.38;115833;1211;62234;-75
2021/04/19 06:42:30;;;;;;;9.07;5.97;;;;;;;9.86;77.75;101451.09;115626;1212;62373;-74
2021/04/19 06:45:00;;;;;;;7.95;4.75;;;;;;;9.90;77.57;101448.02;115624;1212;62378;-73
2021/04/19 06:47:31;;;;;;;9.50;5.65;;;;;;;9.93;77.39;101454.83;115607;1212;62639;-74
2021/04/19 06:49:58;;;;;;;11.50;6.70;;;;;;;9.95;77.58;101455.51;115608;1212;62313;-73
2021/04/19 06:52:25;;;;;;;10.93;6.57;;;;;;;10.01;77.49;101460.20;115784;1212;64540;-73
2021/04/19 06:54:53;;;;;;;13.70;7.50;;;;;;;10.03;77.62;101450.28;115758;1212;62491;-74
2021/04/19 06:57:21;;;;;;;15.27;8.13;;;;;;;10.00;77.81;101453.22;115568;1212;62568;-75
2021/04/19 06:59:47;;;;;;;15.90;8.10;;;;;;;9.97;77.41;101450.89;115645;1212;64249;-74
2021/04/19 07:02:25;;;;;;;9.90;6.33;;;;;;;9.92;76.85;101450.49;115700;1212;61844;-76
2021/04/19 07:04:54;;;;;;;11.77;6.37;;;;;;;9.83;77.98;101451.41;115500;1212;62402;-75
2021/04/19 07:07:31;;;;;;;11.73;6.50;;;;;;;9.77;77.55;101458.96;115702;1211;62509;-73
2021/04/19 07:09:59;;;;;;;15.23;9.27;;;;;;;9.70;78.07;101457.91;115775;1212;61861;-72
2021/04/19 07:12:28;;;;;;;16.43;8.20;;;;;;;9.69;78.08;101461.56;115774;1212;62421;-72
2021/04/19 07:14:55;;;;;;;8.40;4.60;;;;;;;9.70;78.15;101460.56;115683;1212;62095;-72
2021/04/19 07:17:25;;;;;;;14.07;8.00;;;;;;;9.73;77.68;101462.07;115564;1212;62514;-72
2021/04/19 07:19:52;;;;;;;11.50;6.55;;;;;;;9.77;77.78;101458.96;115500;1212;64317;-73
2021/04/19 07:22:19;;;;;;;9.57;5.73;;;;;;;9.80;77.96;101458.68;115574;1212;62835;-73
2021/04/19 07:24:45;;;;;;;12.00;7.23;;;;;;;9.85;77.28;101457.39;115698;1212;62557;-73
2021/04/19 07:27:13;;;;;;;9.00;4.50;;;;;;;9.92;77.38;101450.49;115573;1212;62269;-74
2021/04/19 07:29:41;;;;;;;12.97;7.63;;;;;;;9.96;77.26;101454.51;115807;1212;62370;-73
2021/04/19 07:32:08;;;;;;;17.10;9.77;;;;;;;9.95;77.31;101456.33;115571;1211;62172;-73
2021/04/19 07:34:35;;;;;;;14.35;7.75;;;;;;;9.94;76.95;101454.65;115777;1212;62795;-74
2021/04/19 07:37:07;;;;;;;14.55;7.70;;;;;;;9.98;77.21;101453.36;115763;1211;62280;-75
2021/04/19 07:39:37;;;;;;;14.73;7.47;;;;;;;9.98;76.51;101453.36;115594;1212;63864;-74
2021/04/19 07:42:11;;;;;;;10.97;6.73;;;;;;;10.00;77.02;101453.22;115548;1211;62509;-75
2021/04/19 07:44:42;;;;;;;11.48;7.83;;;;;;;10.11;76.95;101455.63;115718;1211;62206;-74
2021/04/19 07:47:33;;;;;;;8.27;5.93;;;;;;;10.19;76.59;101454.88;115758;1211;62313;-74
2021/04/19 07:50:06;;;;;;;10.30;6.23;;;;;;;10.23;75.96;101458.05;115775;1212;62440;-74
2021/04/19 07:52:54;;;;;;;16.67;9.20;;;;;;;10.20;75.83;101454.72;115590;1211;62650;-75
2021/04/19 07:55:25;;;;;;;13.40;6.93;;;;;;;10.24;76.16;101449.92;115548;1212;62998;-75
2021/04/19 07:58:07;;;;;;;11.90;7.20;;;;;;;10.31;75.50;101453.67;115617;1212;62519;-74
2021/04/19 08:00:39;;;;;;;10.73;6.33;;;;;;;10.33;76.23;101453.53;115827;1212;62331;-73
2021/04/19 08:03:15;;;;;;;14.97;9.07;;;;;;;10.30;75.00;101453.82;115617;1212;62563;-74
2021/04/19 08:05:53;;;;;;;7.07;4.30;;;;;;;10.25;74.78;101453.43;115865;1212;62262;-73
2021/04/19 08:08:36;;;;;;;10.90;6.95;;;;;;;10.27;75.35;101460.23;115634;1212;63036;-74
2021/04/19 08:11:07;;;;;;;11.80;7.83;;;;;;;10.29;75.14;101462.75;115544;1211;62550;-74
2021/04/19 08:13:35;;;;;;;11.50;7.45;;;;;;;10.29;75.13;101462.75;115806;1211;62137;-77
2021/04/19 08:16:21;;;;;;;14.20;9.00;;;;;;;10.30;75.10;101470.55;115572;1212;62320;-78
2021/04/19 08:18:59;;;;;;;11.97;6.63;;;;;;;10.34;75.02;101471.09;115621;1212;62271;-78
2021/04/19 08:21:26;;;;;;;12.65;7.45;;;;;;;10.37;75.14;101470.77;115587;1212;62244;-77
2021/04/19 08:23:53;;;;;;;15.20;9.40;;;;;;;10.38;75.55;101483.06;115565;1212;62403;-77
2021/04/19 08:26:20;;;;;;;14.75;8.35;;;;;;;10.37;74.86;101481.38;115809;1212;62343;-77
2021/04/19 08:28:48;;;;;;;15.27;8.83;;;;;;;10.21;74.40;101466.98;115539;1212;62807;-75
2021/04/19 08:31:16;;;;;;;14.80;8.10;;;;;;;10.20;75.32;101483.89;115588;1212;61806;-76
2021/04/19 08:33:45;;;;;;;14.05;8.05;;;;;;;10.27;75.23;101483.28;115771;1212;63394;-75
2021/04/19 08:36:15;;;;;;;9.00;5.70;;;;;;;10.34;74.79;101479.05;115741;1212;62749;-75
2021/04/19 08:38:43;;;;;;;12.80;7.70;;;;;;;10.42;74.95;101479.11;115737;1212;62251;-77
2021/04/19 08:41:11;;;;;;;9.00;6.15;;;;;;;10.47;74.09;101471.52;115539;1211;62178;-78
2021/04/19 08:43:39;;;;;;;9.20;7.05;;;;;;;10.46;74.63;101477.82;115462;1212;62434;-78
2021/04/19 08:46:09;;;;;;;11.27;6.83;;;;;;;10.41;74.53;101474.78;115774;1212;62896;-78
2021/04/19 08:48:35;;;;;;;15.30;8.85;;;;;;;10.39;74.86;101476.75;115455;1212;63966;-77
2021/04/19 08:51:04;;;;;;;9.73;5.20;;;;;;;10.38;75.18;101483.06;115757;1212;62330;-78
2021/04/19 08:53:31;;;;;;;16.03;8.90;;;;;;;10.39;74.64;101474.10;115598;1212;62554;-78
2021/04/19 08:56:03;;;;;;;12.60;8.15;;;;;;;10.37;74.32;101479.58;115811;1212;62695;-78
2021/04/19 08:58:33;;;;;;;13.50;8.45;;;;;;;10.42;74.79;101473.81;115385;1212;64352;-76
2021/04/19 09:01:01;;;;;;;12.80;8.40;;;;;;;10.38;74.81;101469.80;115728;1212;62600;-77
2021/04/19 09:03:28;;;;;;;19.50;9.80;;;;;;;10.30;74.54;101475.86;115736;1211;62630;-76
2021/04/19 09:05:55;;;;;;;9.90;5.20;;;;;;;10.27;75.19;101476.16;115775;1212;62478;-76
2021/04/19 09:08:23;;;;;;;10.10;5.70;;;;;;;10.11;74.89;101476.01;115518;1212;62581;-76
2021/04/19 09:10:49;;;;;;;11.10;6.70;;;;;;;10.02;75.80;101472.45;115489;1212;64217;-77
2021/04/19 09:13:38;;;;;;;9.90;4.90;;;;;;;9.96;76.56;101481.01;115453;1212;62393;-75
2021/04/19 09:16:24;;;;;;;12.60;7.50;;;;;;;9.92;76.57;101477.00;115857;1211;62374;-78
2021/04/19 09:18:55;;;;;;;11.37;6.23;;;;;;;9.89;76.29;101469.36;115572;1211;62914;-77
2021/04/19 09:21:36;;;;;;;17.23;10.03;;;;;;;9.94;76.56;101475.03;115845;1211;62116;-76
2021/04/19 09:24:06;;;;;;;13.37;7.73;;;;;;;10.01;75.92;101476.11;115601;1212;62932;-76
2021/04/19 09:26:50;;;;;;;12.60;8.00;;;;;;;10.04;75.96;101475.79;115752;1212;62199;-77
2021/04/19 09:29:26;;;;;;;12.10;7.03;;;;;;;10.08;75.80;101478.98;115507;1211;63596;-78
2021/04/19 09:31:55;;;;;;;12.50;7.07;;;;;;;10.09;75.65;101477.98;115800;1211;62431;-76
2021/04/19 09:34:57;;;;;;;11.27;6.77;;;;;;;10.11;75.57;101484.79;115677;1212;62810;-76
2021/04/19 09:37:44;;;;;;;11.90;7.43;;;;;;;10.20;75.19;101486.54;115574;1212;62253;-75
2021/04/19 09:40:16;;;;;;;16.43;8.37;;;;;;;10.45;75.07;101489.40;115615;1212;62662;-76
2021/04/19 09:43:02;;;;;;;9.43;5.73;;;;;;;10.71;74.42;101481.47;115856;1212;62147;-75
2021/04/19 09:45:48;;;;;;;12.73;7.23;;;;;;;11.00;73.38;101477.64;115681;1212;62394;-76
2021/04/19 09:48:40;;;;;;;10.95;7.45;;;;;;;11.28;72.36;101483.56;115482;1212;63227;-76
2021/04/19 09:51:12;;;;;;;8.35;4.25;;;;;;;11.27;70.41;101481.91;115504;1212;62599;-75
2021/04/19 09:53:57;;;;;;;12.20;7.90;;;;;;;11.32;71.15;101482.25;115596;1211;62353;-76
2021/04/19 09:56:29;;;;;;;13.73;8.63;;;;;;;11.30;71.07;101489.55;115709;1212;64195;-76
2021/04/19 09:58:56;;;;;;;9.90;5.85;;;;;;;11.17;70.05;101481.20;115617;1212;62216;-77
2021/04/19 10:01:25;;;;;;;9.50;4.57;;;;;;;11.18;71.06;101477.57;115694;1211;62335;-77
2021/04/19 10:03:54;;;;;;;11.37;7.40;;;;;;;11.30;71.57;101478.92;115846;1212;63091;-76
2021/04/19 10:06:42;;;;;;;12.03;7.87;;;;;;;11.50;71.49;101476.02;115595;1212;62312;-75
2021/04/19 10:09:14;;;;;;;11.63;7.57;;;;;;;11.72;70.04;101477.23;115616;1212;62079;-75
2021/04/19 10:11:48;;;;;;;11.70;7.47;;;;;;;11.96;69.53;101479.11;115783;1212;62192;-76
2021/04/19 10:14:16;;;;;;;9.33;6.57;;;;;;;12.22;69.15;101469.16;115834;1212;62104;-78
2021/04/19 10:16:49;;;;;;;10.70;7.00;;;;;;;12.25;67.82;101467.99;115322;1212;62731;-77
2021/04/19 10:19:28;;;;;;;10.53;6.87;;;;;;;12.01;66.91;101472.31;115595;1212;62297;-78
2021/04/19 10:22:05;;;;;;;11.80;7.65;;;;;;;11.91;68.42;101470.81;115549;1211;64125;-76
2021/04/19 10:24:34;;;;;;;10.87;5.80;;;;;;;11.86;68.61;101467.77;115795;1212;62175;-75
2021/04/19 10:27:04;;;;;;;11.33;6.67;;;;;;;11.86;68.67;101467.77;115615;1211;62168;-76
2021/04/19 10:29:32;;;;;;;11.97;7.67;;;;;;;11.98;68.63;101463.83;115809;1211;62319;-75
2021/04/19 10:32:02;;;;;;;11.40;7.13;;;;;;;12.16;67.78;101458.36;115805;1212;62156;-76
2021/04/19 10:34:31;;;;;;;9.10;5.10;;;;;;;12.34;67.34;101461.66;115619;1212;62172;-78
2021/04/19 10:37:00;;;;;;;13.05;8.25;;;;;;;12.43;66.89;101457.16;115620;1211;62359;-77
2021/04/19 10:39:31;;;;;;;12.47;7.27;;;;;;;12.68;66.95;101452.63;115752;1211;62313;-77
2021/04/19 10:42:03;;;;;;;13.20;7.50;;;;;;;12.89;64.29;101444.08;115757;1212;62632;-77
2021/04/19 10:44:40;;;;;;;11.43;7.70;;;;;;;12.87;64.11;101450.58;115526;1212;62420;-78
2021/04/19 10:47:10;;;;;;;10.30;6.27;;;;;;;12.95;63.74;101454.05;115727;1212;64147;-78
2021/04/19 10:49:38;;;;;;;9.67;5.83;;;;;;;12.95;62.98;101448.72;115793;1212;62367;-78
2021/04/19 10:52:22;;;;;;;11.93;7.30;;;;;;;12.92;63.84;101458.88;115538;1212;62477;-79
2021/04/19 10:54:50;;;;;;;11.50;7.25;;;;;;;12.87;64.31;101451.41;115503;1212;64203;-77
2021/04/19 10:57:23;;;;;;;10.43;6.83;;;;;;;13.02;64.56;101448.86;115765;1212;63654;-79
2021/04/19 10:59:51;;;;;;;9.60;6.30;;;;;;;13.14;63.96;101454.66;115416;1212;64234;-79
2021/04/19 11:02:23;;;;;;;12.53;6.23;;;;;;;13.18;63.66;101448.80;115173;1212;63427;-76
2021/04/19 11:04:50;;;;;;;14.15;8.40;;;;;;;13.16;62.54;101450.80;115520;1212;62735;-76
2021/04/19 11:07:36;;;;;;;12.57;8.07;;;;;;;13.23;62.98;101446.43;115537;1212;62828;-76
2021/04/19 11:10:23;;;;;;;10.70;6.80;;;;;;;13.33;62.18;101446.26;115525;1211;62389;-77
2021/04/19 11:13:07;;;;;;;11.93;7.70;;;;;;;13.33;62.75;101448.10;115618;1211;62353;-77
2021/04/19 11:15:35;;;;;;;10.50;6.00;;;;;;;13.28;61.96;101443.23;115620;1212;62337;-77
2021/04/19 11:18:14;;;;;;;11.03;7.23;;;;;;;13.18;61.99;101443.47;115776;1211;61802;-77
2021/04/19 11:20:42;;;;;;;11.70;7.25;;;;;;;13.05;62.82;101444.02;115807;1212;63415;-77
2021/04/19 11:23:25;;;;;;;10.63;6.77;;;;;;;13.10;63.23;101440.02;115761;1212;62243;-77
2021/04/19 11:25:54;;;;;;;12.57;7.90;;;;;;;13.24;62.77;101442.78;115797;1212;62114;-77
2021/04/19 11:28:23;;;;;;;13.50;7.33;;;;;;;13.43;62.59;101441.55;115567;1211;62560;-77
2021/04/19 11:30:54;;;;;;;10.83;6.40;;;;;;;13.60;61.90;101441.42;115621;1212;62576;-77
2021/04/19 11:33:26;;;;;;;10.77;6.10;;;;;;;13.80;61.21;101439.14;115783;1212;62233;-77